Condicions actuals
Partly Cloudy
Conditions



Pressió:
1020.92 (hPa) - 30.15 (inHG)
Visibilitat:

10.0 (km) - 6.2 (miles)
Base de Núvols

1676 (Mts) - 5500 (Feets)
   Temperatura
14  °C
Temperatura
12  °C
P.ros.
88  %
 Humitat
   Velocitat del Vent
11  km/h
6  kts
7  mph
3.1  m/s
   Vent Direcció
N
45°
E
90°
135°
S
180°
225°
O
270°
315°
 290°

Oest N
Oest
   Airport Data
LELL
Sabadell Airfield
Metar :LELL 220530Z AUTO 29006KT 9999 FEW055 14/12 Q1021
Wed 22nd September 07:30 am
   Raw Metar Info
Raw METAR is the most common format in the world for the transmission of observational weather data. It is highly standardized through the International Civil Aviation Organization (ICAO), which allows it to be understood throughout most of the world.
   API Info
Data Provided by
https://www.checkwx.com/weather/LELL

Aviation Weather providing METAR, TAF, AIRMET, SIGMET and OUTLOOK Weather Reports
   © Info
CSS/SVG/PHP scripts were developed by weather34.com for use in the weather34 template © 2015-2021

Guide Info provided by Metar-Wikipedia